Time;durP1;ratioP1;P1;durP2;ratioP2;P2;SDS_P1;SDS_P2;PMS_P1;PMS_P2;Temp;Humidity;BMP_temperature;BMP_pressure;BME280_temperature;BME280_humidity;BME280_pressure;Samples;Min_cycle;Max_cycle;Signal;HPM_P1;HPM_P2
2022/08/29 00:04:18;;;;;;;16.40;10.72;;;;;;;19.19;100.00;98996.64;4488931;77;21078;-84
2022/08/29 00:10:20;;;;;;;17.70;10.95;;;;;;;19.11;100.00;99000.20;4453552;77;21003;-83
2022/08/29 00:16:22;;;;;;;14.25;10.38;;;;;;;19.05;100.00;98996.97;4477005;76;21018;-85
2022/08/29 00:22:23;;;;;;;18.62;10.75;;;;;;;19.05;100.00;98999.75;4469296;76;21843;-86
2022/08/29 00:28:25;;;;;;;18.87;10.65;;;;;;;19.04;100.00;99002.36;4465866;77;21014;-84
2022/08/29 00:34:26;;;;;;;14.75;9.18;;;;;;;19.02;100.00;99006.95;4342782;78;20963;-85
2022/08/29 00:40:36;;;;;;;13.30;9.03;;;;;;;19.01;100.00;99002.63;4423035;79;20964;-84
2022/08/29 00:46:45;;;;;;;20.43;10.00;;;;;;;19.02;100.00;98997.84;4410478;79;20999;-85
2022/08/29 00:52:47;;;;;;;17.98;9.38;;;;;;;19.02;100.00;99000.02;4429545;79;21063;-85
2022/08/29 00:59:19;;;;;;;15.65;10.15;;;;;;;19.01;100.00;98993.52;4516594;76;21029;-84
2022/08/29 01:05:22;;;;;;;14.07;9.45;;;;;;;18.98;100.00;98991.59;4513922;76;20976;-84
2022/08/29 01:17:48;;;;;;;15.93;9.13;;;;;;;18.98;100.00;99002.07;4518169;76;20976;-85
2022/08/29 01:24:25;;;;;;;14.53;9.30;;;;;;;18.97;100.00;99003.29;4342154;80;21507;-85
2022/08/29 01:30:27;;;;;;;;;;;;;;;18.92;100.00;99001.02;4428510;78;20997;-84
2022/08/29 01:36:37;;;;;;;12.95;9.25;;;;;;;18.90;100.00;98999.90;4326439;79;20151;-85
2022/08/29 01:42:38;;;;;;;15.08;10.32;;;;;;;18.88;100.00;98996.77;4334665;79;21006;-85
2022/08/29 01:48:44;;;;;;;15.98;10.28;;;;;;;18.87;100.00;99000.14;4326923;80;21014;-85
2022/08/29 01:54:45;;;;;;;13.35;9.45;;;;;;;18.90;100.00;99007.63;4340316;80;21048;-85
2022/08/29 02:00:48;;;;;;;15.90;11.18;;;;;;;18.94;100.00;99008.31;4460413;77;21071;-85
2022/08/29 02:06:50;;;;;;;16.27;11.93;;;;;;;18.96;100.00;99014.81;4476000;77;21022;-84
2022/08/29 02:12:52;;;;;;;17.90;11.97;;;;;;;18.94;100.00;99013.07;4479624;77;21940;-85
2022/08/29 02:18:54;;;;;;;17.48;13.08;;;;;;;18.94;100.00;99010.30;4471680;77;21026;-86
2022/08/29 02:24:55;;;;;;;19.57;14.15;;;;;;;18.95;100.00;99018.81;4321725;80;21941;-85
2022/08/29 02:30:58;;;;;;;16.50;12.40;;;;;;;18.92;100.00;99018.29;4332962;80;21041;-85
2022/08/29 02:36:59;;;;;;;20.85;13.32;;;;;;;18.92;100.00;99015.52;4323965;80;20979;-85
2022/08/29 02:43:02;;;;;;;16.23;13.13;;;;;;;18.90;100.00;99011.78;4349882;80;21003;-84
2022/08/29 02:49:03;;;;;;;20.08;12.15;;;;;;;18.90;100.00;99014.56;4316584;80;21461;-85
2022/08/29 02:55:07;;;;;;;20.37;13.45;;;;;;;18.88;100.00;99023.11;4318506;80;21002;-85
2022/08/29 03:01:09;;;;;;;21.37;13.70;;;;;;;18.84;100.00;99023.19;4334497;79;20999;-85
2022/08/29 03:07:10;;;;;;;20.68;14.83;;;;;;;18.81;100.00;99014.34;4345410;80;20996;-85
2022/08/29 03:13:12;;;;;;;25.52;14.38;;;;;;;18.79;100.00;99024.31;4342049;79;21115;-84
2022/08/29 03:19:13;;;;;;;21.27;15.05;;;;;;;18.76;100.00;99030.72;4350425;79;20983;-85
2022/08/29 03:25:17;;;;;;;20.52;14.60;;;;;;;18.74;100.00;99033.29;4341057;80;22150;-84
2022/08/29 03:31:19;;;;;;;24.72;15.75;;;;;;;18.72;100.00;99033.55;4315942;80;21042;-84
2022/08/29 03:37:21;;;;;;;22.52;14.75;;;;;;;18.69;100.00;99035.20;4321292;80;21025;-85
2022/08/29 03:43:22;;;;;;;21.95;14.63;;;;;;;18.67;100.00;99043.75;4475308;77;21004;-85
2022/08/29 03:49:24;;;;;;;22.02;14.93;;;;;;;18.65;100.00;99050.35;4472677;77;20985;-84
2022/08/29 03:55:27;;;;;;;20.00;14.23;;;;;;;18.63;100.00;99059.10;4473214;77;20947;-85
2022/08/29 04:01:28;;;;;;;24.10;14.53;;;;;;;18.63;100.00;99059.69;4482086;77;21035;-85
2022/08/29 04:07:47;;;;;;;19.15;15.00;;;;;;;18.60;100.00;99062.70;4466170;77;21457;-84
2022/08/29 04:13:50;;;;;;;24.98;15.50;;;;;;;18.56;100.00;99078.63;4468985;77;20948;-85
2022/08/29 04:19:52;;;;;;;22.05;14.58;;;;;;;18.52;100.00;99082.09;4478754;77;21014;-84
2022/08/29 04:25:53;;;;;;;22.82;15.75;;;;;;;18.53;100.00;99096.12;4469819;77;20969;-85
2022/08/29 04:31:54;;;;;;;25.85;15.05;;;;;;;18.50;100.00;99096.18;4482185;77;21023;-85
2022/08/29 04:37:56;;;;;;;21.12;14.00;;;;;;;18.47;100.00;99105.34;4476600;76;20981;-85
2022/08/29 04:43:58;;;;;;;18.98;12.78;;;;;;;18.46;100.00;99115.64;4495546;76;21003;-84
2022/08/29 04:50:01;;;;;;;23.22;13.38;;;;;;;18.43;100.00;99119.89;4455112;77;21066;-85
2022/08/29 04:56:07;;;;;;;24.37;14.63;;;;;;;18.44;100.00;99120.05;4453036;77;21052;-86
2022/08/29 05:02:09;;;;;;;19.95;11.97;;;;;;;18.42;100.00;99128.80;4469485;77;21500;-84
2022/08/29 05:08:11;;;;;;;17.25;13.08;;;;;;;18.39;100.00;99138.55;4469421;76;21005;-85
2022/08/29 05:14:13;;;;;;;18.10;11.63;;;;;;;18.36;100.00;99142.94;4465312;77;20981;-85
2022/08/29 05:20:15;;;;;;;23.73;13.28;;;;;;;18.36;100.00;99147.69;4452080;77;22091;-85
2022/08/29 05:26:17;;;;;;;20.60;14.58;;;;;;;18.35;100.00;99157.22;4466367;76;21026;-84
2022/08/29 05:32:20;;;;;;;23.47;15.48;;;;;;;18.32;100.00;99161.59;4456449;76;21073;-84
2022/08/29 05:38:22;;;;;;;30.12;12.90;;;;;;;18.31;100.00;99168.95;4476397;77;21059;-85
2022/08/29 05:44:23;;;;;;;26.82;14.47;;;;;;;18.30;100.00;99168.78;4473002;77;20994;-85
2022/08/29 05:50:24;;;;;;;17.05;13.95;;;;;;;18.26;100.00;99173.61;4478736;77;21007;-85
2022/08/29 05:56:26;;;;;;;18.20;12.60;;;;;;;18.26;100.00;99175.00;4473333;77;20966;-85
2022/08/29 06:02:27;;;;;;;20.00;13.68;;;;;;;18.21;100.00;99179.00;4422256;78;21051;-84
2022/08/29 06:08:34;;;;;;;21.42;13.53;;;;;;;18.18;100.00;99184.00;4480304;77;21563;-85
2022/08/29 06:14:35;;;;;;;22.58;14.63;;;;;;;18.16;100.00;99185.05;4470164;77;20947;-85
2022/08/29 06:20:38;;;;;;;22.58;13.70;;;;;;;18.13;100.00;99195.59;4480719;77;20980;-84
2022/08/29 06:26:39;;;;;;;20.57;14.70;;;;;;;18.08;100.00;99204.38;4471145;77;20995;-85
2022/08/29 06:32:41;;;;;;;25.48;13.83;;;;;;;18.09;100.00;99210.08;4481433;77;21038;-84
2022/08/29 06:38:42;;;;;;;18.90;12.75;;;;;;;18.08;100.00;99220.20;4472537;77;21030;-83
2022/08/29 06:44:44;;;;;;;19.87;13.88;;;;;;;18.05;100.00;99224.60;4476707;77;21586;-84
2022/08/29 06:50:45;;;;;;;15.60;13.15;;;;;;;18.04;100.00;99236.86;4471169;77;21235;-84
2022/08/29 06:56:48;;;;;;;19.32;13.58;;;;;;;18.06;100.00;99244.75;4472870;77;21483;-84
2022/08/29 07:02:51;;;;;;;18.48;12.05;;;;;;;18.07;100.00;99254.66;4468940;77;21042;-85
2022/08/29 07:08:52;;;;;;;16.05;11.22;;;;;;;18.13;100.00;99248.81;4480994;77;20960;-83
2022/08/29 07:14:54;;;;;;;16.12;12.23;;;;;;;18.16;100.00;99252.92;4484948;77;21015;-84
2022/08/29 07:20:55;;;;;;;18.20;12.07;;;;;;;18.20;100.00;99260.57;4478298;77;21032;-84
2022/08/29 07:26:56;;;;;;;14.38;11.68;;;;;;;18.20;100.00;99268.09;4478247;77;21007;-85
2022/08/29 07:32:58;;;;;;;13.85;10.78;;;;;;;18.30;100.00;99261.02;4469529;77;21059;-85
2022/08/29 07:39:00;;;;;;;11.95;9.78;;;;;;;18.61;100.00;99265.28;4449397;78;21053;-85
2022/08/29 07:45:25;;;;;;;16.25;10.23;;;;;;;18.90;100.00;99269.75;4454162;78;20999;-85
2022/08/29 07:51:45;;;;;;;12.28;9.85;;;;;;;19.24;100.00;99268.11;4461325;78;21033;-84
2022/08/29 07:58:10;;;;;;;15.68;11.22;;;;;;;19.43;100.00;99272.32;4437804;78;21052;-85
2022/08/29 08:04:13;;;;;;;16.85;11.65;;;;;;;19.72;100.00;99268.33;4430506;78;21016;-85
2022/08/29 08:10:18;;;;;;;12.43;9.40;;;;;;;20.04;100.00;99276.17;4465853;78;21455;-85
2022/08/29 08:16:31;;;;;;;12.37;9.93;;;;;;;20.09;100.00;99287.38;4466982;78;21522;-86
2022/08/29 08:22:58;;;;;;;13.08;10.48;;;;;;;20.40;100.00;99286.48;4438589;78;21082;-85
2022/08/29 08:29:33;;;;;;;12.85;9.78;;;;;;;20.87;100.00;99302.39;4454133;78;20963;-84
2022/08/29 08:36:22;;;;;;;10.80;8.73;;;;;;;21.02;100.00;99307.78;4315526;78;20986;-84
2022/08/29 08:50:08;;;;;;;11.93;7.90;;;;;;;21.24;100.00;99310.78;4510795;77;20990;-85
2022/08/29 08:56:45;;;;;;;8.40;7.10;;;;;;;21.42;100.00;99311.86;4511947;77;21515;-84
2022/08/29 09:11:15;;;;;;;9.48;7.45;;;;;;;21.28;99.66;99312.25;4237318;81;21497;-84
2022/08/29 09:17:35;;;;;;;8.28;7.37;;;;;;;21.53;99.65;99310.20;4216594;83;21111;-85
2022/08/29 09:24:02;;;;;;;9.58;6.95;;;;;;;21.88;97.95;99323.76;4260700;79;21618;-85
2022/08/29 09:30:30;;;;;;;11.25;8.23;;;;;;;22.63;98.18;99315.47;4368545;79;21181;-85
2022/08/29 09:36:50;;;;;;;7.92;6.20;;;;;;;22.90;94.95;99312.95;4373281;78;21091;-85
2022/08/29 09:43:54;;;;;;;11.78;5.67;;;;;;;22.65;94.28;99313.78;4460816;76;21008;-83
2022/08/29 10:04:43;;;;;;;7.70;6.90;;;;;;;23.02;93.14;99312.92;4443061;77;21049;-85
2022/08/29 10:11:42;;;;;;;7.65;6.50;;;;;;;23.57;91.48;99308.61;4425290;77;20986;-86
2022/08/29 10:32:43;;;;;;;5.83;5.03;;;;;;;26.81;85.74;99301.11;4324217;80;21102;-84
2022/08/29 10:47:04;;;;;;;8.30;4.47;;;;;;;26.13;82.12;99301.38;4274542;82;21108;-86
2022/08/29 10:53:28;;;;;;;5.10;4.60;;;;;;;25.71;80.42;99297.70;4262249;82;20988;-85
2022/08/29 11:00:11;;;;;;;6.35;4.55;;;;;;;26.27;79.68;99295.09;4275306;82;21610;-87
2022/08/29 11:13:43;;;;;;;8.25;5.05;;;;;;;25.85;75.89;99301.27;4426116;77;21035;-83
2022/08/29 11:20:56;;;;;;;5.10;4.33;;;;;;;25.51;75.43;99296.02;4429105;79;22022;-84
2022/08/29 11:34:51;;;;;;;7.03;5.35;;;;;;;24.56;73.40;99281.83;4318554;80;21000;-86
2022/08/29 11:41:21;;;;;;;7.28;5.37;;;;;;;24.37;73.69;99283.00;4406504;79;21012;-85
2022/08/29 11:47:42;;;;;;;8.95;5.65;;;;;;;23.98;73.93;99286.55;4403500;79;20968;-85
2022/08/29 11:53:44;;;;;;;8.68;5.58;;;;;;;23.87;73.53;99285.53;4406428;77;21008;-85
2022/08/29 12:00:05;;;;;;;8.63;5.67;;;;;;;23.69;73.65;99280.45;4465984;77;22046;-86
2022/08/29 12:06:59;;;;;;;8.75;6.05;;;;;;;23.57;73.46;99282.06;4316874;80;21140;-84
2022/08/29 12:13:08;;;;;;;8.83;6.55;;;;;;;23.72;73.76;99283.73;4295227;81;21995;-85
2022/08/29 12:19:10;;;;;;;8.18;5.83;;;;;;;23.77;73.60;99249.61;4208353;82;21151;-85
2022/08/29 12:25:42;;;;;;;7.42;5.45;;;;;;;23.77;73.60;99249.61;4213422;82;21625;-85
2022/08/29 12:32:17;;;;;;;12.82;6.33;;;;;;;23.84;73.09;99279.45;4410193;79;21640;-85
2022/08/29 12:38:52;;;;;;;6.92;5.58;;;;;;;23.73;72.61;99277.68;4256319;81;21446;-85
2022/08/29 12:45:26;;;;;;;10.13;5.33;;;;;;;23.90;72.55;99282.45;4494292;76;22013;-85
2022/08/29 12:51:42;;;;;;;6.70;5.45;;;;;;;23.89;72.22;99278.08;4493982;76;20988;-84
2022/08/29 12:57:46;;;;;;;7.80;5.60;;;;;;;23.74;71.76;99277.83;4370345;80;21031;-84
2022/08/29 13:04:07;;;;;;;6.85;5.33;;;;;;;23.69;71.90;99272.86;4424688;79;21015;-87
2022/08/29 13:10:17;;;;;;;6.97;4.83;;;;;;;23.64;71.96;99267.06;4525787;76;20988;-85
2022/08/29 13:16:28;;;;;;;5.30;4.80;;;;;;;23.56;71.77;99272.14;4497704;76;21935;-85
2022/08/29 13:22:34;;;;;;;5.45;4.70;;;;;;;23.47;71.75;99271.29;4352937;80;21046;-84
2022/08/29 13:29:05;;;;;;;8.63;4.72;;;;;;;23.37;71.05;99269.05;4363903;80;21010;-85
2022/08/29 13:35:21;;;;;;;8.78;5.03;;;;;;;23.24;70.09;99259.30;4353250;80;21889;-87
2022/08/29 13:41:32;;;;;;;6.03;4.47;;;;;;;23.13;70.07;99260.29;4468158;78;21116;-84
2022/08/29 13:47:52;;;;;;;6.58;4.65;;;;;;;23.03;70.52;99254.48;4460802;78;21020;-86
2022/08/29 13:53:54;;;;;;;11.60;5.20;;;;;;;22.95;69.60;99248.19;4447299;78;21775;-85
2022/08/29 14:06:15;;;;;;;;;;;;;;;22.86;69.92;99252.30;4446263;78;21069;-87
2022/08/29 14:12:19;;;;;;;9.58;5.40;;;;;;;22.85;69.74;99250.72;4449629;78;20444;-85
2022/08/29 14:18:21;;;;;;;7.75;4.80;;;;;;;22.87;69.97;99258.03;4452121;78;21041;-86
2022/08/29 14:24:36;;;;;;;8.98;5.67;;;;;;;22.90;70.20;99249.55;4453991;78;20986;-86
2022/08/29 14:30:38;;;;;;;5.90;4.42;;;;;;;22.94;70.45;99259.95;4451798;78;21021;-85
2022/08/29 14:37:01;;;;;;;9.10;4.90;;;;;;;22.94;69.97;99261.98;4453483;78;21003;-85
2022/08/29 14:43:03;;;;;;;12.20;6.22;;;;;;;22.86;70.00;99267.64;4466986;77;20967;-85
2022/08/29 14:55:32;;;;;;;11.00;5.40;;;;;;;22.66;70.73;99258.77;4459982;77;20961;-85
2022/08/29 15:01:34;;;;;;;12.00;5.40;;;;;;;22.66;71.22;99253.95;4330326;80;20976;-85
2022/08/29 15:07:35;;;;;;;7.97;4.70;;;;;;;22.58;70.44;99251.86;4346472;79;20988;-86
2022/08/29 15:13:37;;;;;;;9.18;5.08;;;;;;;22.49;70.08;99244.77;4332659;79;21030;-85
2022/08/29 15:19:39;;;;;;;7.85;4.70;;;;;;;22.40;70.43;99239.85;4318127;79;21031;-86
2022/08/29 15:25:40;;;;;;;6.03;5.00;;;;;;;22.32;70.05;99235.73;4327848;79;21023;-85
2022/08/29 15:31:42;;;;;;;7.33;4.30;;;;;;;22.29;70.53;99238.63;4329344;79;21057;-85
2022/08/29 15:37:43;;;;;;;5.85;3.75;;;;;;;22.27;70.81;99232.73;4310846;80;21031;-85
2022/08/29 15:43:45;;;;;;;5.75;4.15;;;;;;;22.18;70.83;99229.22;4308064;80;21840;-86
2022/08/29 15:49:47;;;;;;;7.03;3.98;;;;;;;22.08;70.64;99224.75;4308123;80;21028;-85
2022/08/29 15:55:49;;;;;;;7.10;4.92;;;;;;;22.02;70.62;99224.38;4299213;80;22460;-85
2022/08/29 16:01:52;;;;;;;9.45;4.72;;;;;;;21.97;71.38;99230.51;4310236;80;20991;-86
2022/08/29 16:07:54;;;;;;;6.97;4.50;;;;;;;21.89;71.53;99229.16;4307258;80;21031;-85
2022/08/29 16:13:57;;;;;;;11.40;4.33;;;;;;;21.80;71.46;99224.87;4377315;79;21024;-85
2022/08/29 16:20:00;;;;;;;7.17;4.35;;;;;;;21.74;71.91;99221.80;4371715;79;21094;-86
2022/08/29 16:26:01;;;;;;;7.70;4.40;;;;;;;21.66;72.40;99219.85;4375643;79;21673;-86
2022/08/29 16:32:04;;;;;;;6.50;4.53;;;;;;;21.52;72.49;99216.70;4260179;79;10000262;-86
2022/08/29 16:38:22;;;;;;;7.35;4.70;;;;;;;21.36;72.75;99209.20;4372394;79;22150;-85
2022/08/29 16:44:24;;;;;;;10.82;5.30;;;;;;;21.30;73.40;99217.94;4371475;79;21040;-85
2022/08/29 16:50:28;;;;;;;7.03;5.00;;;;;;;21.22;73.82;99215.81;4375525;79;21094;-86
2022/08/29 16:56:31;;;;;;;10.55;5.42;;;;;;;21.15;74.39;99211.81;4379135;79;20994;-85
2022/08/29 17:02:32;;;;;;;8.83;5.62;;;;;;;21.06;74.84;99219.42;4375058;79;20976;-86
2022/08/29 17:20:37;;;;;;;9.18;6.33;;;;;;;20.79;75.78;99234.83;4477512;77;20972;-85
2022/08/29 17:26:43;;;;;;;7.53;6.08;;;;;;;20.66;75.87;99237.55;4478109;77;20989;-86
2022/08/29 17:32:44;;;;;;;10.72;6.03;;;;;;;20.53;75.97;99233.14;4476534;77;20921;-85
2022/08/29 17:38:46;;;;;;;8.50;5.72;;;;;;;20.41;76.19;99245.73;4469653;77;22187;-85
2022/08/29 17:44:48;;;;;;;10.03;6.17;;;;;;;20.30;76.60;99249.38;4448447;78;20955;-85
2022/08/29 17:50:50;;;;;;;10.48;6.83;;;;;;;20.14;77.63;99252.92;4446215;77;20982;-85
2022/08/29 17:56:57;;;;;;;20.40;7.87;;;;;;;19.93;77.79;99266.49;4308326;80;20989;-85
2022/08/29 18:02:59;;;;;;;14.80;7.75;;;;;;;19.80;77.85;99273.31;4449434;78;21020;-85
2022/08/29 18:09:00;;;;;;;16.30;8.35;;;;;;;19.62;78.21;99288.16;4305829;81;20996;-85
2022/08/29 18:15:06;;;;;;;14.50;8.20;;;;;;;19.49;78.76;99290.64;4309480;81;21077;-85
2022/08/29 18:21:08;;;;;;;15.43;7.95;;;;;;;19.37;79.13;99293.44;4458993;78;21843;-86
2022/08/29 18:27:09;;;;;;;10.08;7.00;;;;;;;19.23;79.65;99292.29;4460198;77;21010;-85
2022/08/29 18:33:11;;;;;;;12.80;7.83;;;;;;;18.94;79.91;99315.42;4457914;78;20992;-86
2022/08/29 18:39:15;;;;;;;12.03;8.68;;;;;;;18.74;80.72;99311.22;4468172;77;21040;-85
2022/08/29 18:45:17;;;;;;;14.58;8.60;;;;;;;18.65;81.28;99315.14;4316468;80;21674;-86
2022/08/29 18:51:19;;;;;;;12.75;9.15;;;;;;;18.54;81.86;99319.45;4444566;77;21034;-85
2022/08/29 18:57:20;;;;;;;17.17;9.23;;;;;;;18.34;82.08;99328.25;4316756;79;21583;-85
2022/08/29 19:03:22;;;;;;;14.53;9.33;;;;;;;18.04;82.48;99332.44;4334162;78;21450;-85
2022/08/29 19:09:23;;;;;;;16.10;9.80;;;;;;;17.84;83.14;99341.80;4343484;78;21030;-84
2022/08/29 19:15:27;;;;;;;14.53;10.40;;;;;;;17.71;83.81;99349.86;4348648;78;21477;-85
2022/08/29 19:21:28;;;;;;;14.47;10.23;;;;;;;17.63;84.36;99357.30;4321732;79;21082;-84
2022/08/29 19:27:29;;;;;;;15.90;10.85;;;;;;;17.54;84.98;99370.85;4452369;77;20979;-85
2022/08/29 19:33:33;;;;;;;12.73;9.53;;;;;;;17.43;85.15;99380.59;4455153;76;21113;-84
2022/08/29 19:39:35;;;;;;;19.80;10.93;;;;;;;17.31;85.66;99382.51;4438717;77;20982;-85
2022/08/29 19:45:37;;;;;;;22.07;12.07;;;;;;;17.06;85.81;99381.95;4447255;78;21115;-84
2022/08/29 19:51:39;;;;;;;15.40;11.45;;;;;;;16.90;86.13;99392.16;4458328;78;21031;-84
2022/08/29 19:57:40;;;;;;;15.65;10.93;;;;;;;16.71;86.43;99398.84;4455271;78;21018;-84
2022/08/29 20:03:41;;;;;;;19.32;10.88;;;;;;;16.55;87.09;99398.55;4454968;78;21015;-84
2022/08/29 20:09:43;;;;;;;21.35;11.22;;;;;;;16.47;87.74;99401.16;4454702;78;21589;-84
2022/08/29 20:15:44;;;;;;;18.73;11.88;;;;;;;16.36;88.00;99408.70;4460325;78;21020;-84
2022/08/29 20:21:47;;;;;;;14.00;10.35;;;;;;;16.14;88.08;99412.16;4449167;78;20998;-84
2022/08/29 20:27:48;;;;;;;14.60;9.80;;;;;;;16.04;88.66;99422.66;4454658;78;21017;-84
2022/08/29 20:33:50;;;;;;;16.75;9.90;;;;;;;16.01;89.35;99424.84;4437979;78;20970;-84
2022/08/29 20:39:51;;;;;;;19.32;9.60;;;;;;;15.92;89.44;99427.24;4448354;77;21913;-84
2022/08/29 20:45:54;;;;;;;14.90;10.32;;;;;;;15.77;89.59;99413.27;4440084;76;21036;-84
2022/08/29 20:51:56;;;;;;;13.00;8.68;;;;;;;15.63;89.98;99409.17;4457633;77;20993;-84
2022/08/29 20:57:57;;;;;;;12.75;8.33;;;;;;;15.45;89.96;99411.20;4457184;77;21508;-84
2022/08/29 21:10:19;;;;;;;18.23;9.90;;;;;;;15.29;91.01;99415.73;4314911;80;20987;-84
2022/08/29 21:16:20;;;;;;;17.62;8.58;;;;;;;15.18;91.12;99408.64;4310064;80;20968;-84
2022/08/29 21:22:25;;;;;;;17.42;10.08;;;;;;;15.04;91.60;99411.41;4449729;76;21418;-83
2022/08/29 21:28:31;;;;;;;17.87;9.05;;;;;;;15.00;91.59;99409.25;4494665;77;20969;-84
2022/08/29 21:34:33;;;;;;;14.70;8.10;;;;;;;14.86;92.35;99405.11;4455324;77;20960;-83
2022/08/29 21:40:35;;;;;;;13.15;9.53;;;;;;;14.77;92.43;99414.37;4474255;76;20998;-83
2022/08/29 21:46:43;;;;;;;13.88;9.13;;;;;;;14.65;92.63;99422.98;4527443;76;20988;-84
2022/08/29 21:52:47;;;;;;;14.50;8.20;;;;;;;14.61;92.73;99424.36;4524504;76;21088;-83
2022/08/29 21:58:53;;;;;;;13.78;9.08;;;;;;;14.47;92.89;99430.45;4524425;76;20966;-83
2022/08/29 22:04:51;;;;;;;12.63;8.68;;;;;;;14.38;93.08;99431.38;4438367;78;21453;-83
2022/08/29 22:10:53;;;;;;;21.05;11.38;;;;;;;14.29;93.59;99427.64;4425400;78;21551;-83
2022/08/29 22:17:02;;;;;;;17.67;11.25;;;;;;;14.25;93.81;99425.45;4420704;78;21494;-84
2022/08/29 22:23:10;;;;;;;17.65;10.00;;;;;;;14.19;94.05;99425.02;4499700;78;21028;-83
2022/08/29 22:29:15;;;;;;;22.37;10.93;;;;;;;14.07;93.76;99422.63;4366979;80;21031;-83
2022/08/29 22:35:23;;;;;;;15.70;10.30;;;;;;;13.93;93.86;99424.52;4502858;78;20996;-83
2022/08/29 22:41:25;;;;;;;17.80;12.63;;;;;;;13.89;95.55;99425.88;4490478;78;22113;-83
2022/08/29 22:47:27;;;;;;;16.05;10.58;;;;;;;13.96;95.32;99430.63;4447224;78;21039;-83
2022/08/29 22:53:29;;;;;;;17.10;11.05;;;;;;;14.00;95.90;99426.71;4339066;80;21499;-83
2022/08/29 22:59:32;;;;;;;16.02;12.47;;;;;;;14.10;96.67;99424.59;4525168;77;20975;-83
2022/08/29 23:05:33;;;;;;;20.02;12.68;;;;;;;13.91;95.45;99422.16;4509654;76;21448;-83
2022/08/29 23:11:35;;;;;;;20.50;13.62;;;;;;;13.65;95.26;99422.43;4492490;76;21500;-83
2022/08/29 23:17:36;;;;;;;17.12;11.85;;;;;;;13.61;96.24;99422.18;4491203;76;21625;-84
2022/08/29 23:23:38;;;;;;;18.65;10.90;;;;;;;13.58;96.06;99418.83;4500992;77;21553;-83
2022/08/29 23:29:39;;;;;;;19.92;11.95;;;;;;;13.67;97.14;99424.19;4497900;77;21916;-83
2022/08/29 23:35:43;;;;;;;16.62;10.23;;;;;;;13.72;97.11;99429.91;4481722;77;21629;-83
2022/08/29 23:41:44;;;;;;;17.60;9.28;;;;;;;13.61;96.90;99428.48;4448308;78;21034;-83
2022/08/29 23:47:45;;;;;;;14.75;9.93;;;;;;;13.55;97.12;99427.84;4461521;78;21911;-82
2022/08/29 23:53:47;;;;;;;22.15;9.90;;;;;;;13.43;96.86;99426.80;4458684;78;21488;-83
